createdAt,value
2019-02-12T00:00:53.999Z,8.77
2019-02-12T00:03:23.623Z,9.23
2019-02-12T00:05:52.941Z,9.17
2019-02-12T00:08:22.592Z,9.03
2019-02-12T00:10:51.871Z,11.27
2019-02-12T00:13:21.332Z,11.33
2019-02-12T00:15:50.620Z,11.00
2019-02-12T00:18:20.759Z,11.00
2019-02-12T00:20:50.346Z,11.77
2019-02-12T00:23:19.652Z,10.80
2019-02-12T00:25:48.962Z,10.63
2019-02-12T00:28:19.182Z,9.00
2019-02-12T00:30:48.488Z,9.83
2019-02-12T00:33:18.530Z,9.93
2019-02-12T00:35:48.207Z,9.87
2019-02-12T00:38:17.810Z,10.10
2019-02-12T00:40:47.254Z,10.70
2019-02-12T00:43:16.579Z,9.40
2019-02-12T00:45:46.337Z,9.43
2019-02-12T00:48:15.608Z,9.80
2019-02-12T00:50:45.062Z,9.57
2019-02-12T00:53:15.079Z,7.70
2019-02-12T00:55:44.722Z,6.63
2019-02-12T00:58:14.046Z,6.50
2019-02-12T01:00:43.399Z,5.47
2019-02-12T01:03:12.762Z,5.57
2019-02-12T01:05:42.458Z,5.23
2019-02-12T01:08:11.770Z,5.10
2019-02-12T01:10:41.394Z,5.00
2019-02-12T01:13:11.051Z,4.50
2019-02-12T01:15:40.350Z,5.17
2019-02-12T01:18:09.739Z,5.57
2019-02-12T01:20:39.075Z,5.20
2019-02-12T01:23:08.759Z,4.57
2019-02-12T01:25:38.291Z,5.37
2019-02-12T01:28:08.167Z,5.00
2019-02-12T01:30:37.531Z,5.33
2019-02-12T01:33:06.945Z,4.80
2019-02-12T01:35:36.363Z,5.27
2019-02-12T01:38:05.947Z,4.57
2019-02-12T01:40:35.353Z,4.63
2019-02-12T01:43:04.924Z,4.10
2019-02-12T01:45:34.182Z,4.57
2019-02-12T01:48:03.551Z,4.40
2019-02-12T01:50:32.866Z,4.50
2019-02-12T01:53:02.503Z,4.80
2019-02-12T01:55:32.571Z,5.27
2019-02-12T01:58:02.146Z,4.60
2019-02-12T02:00:31.886Z,4.73
2019-02-12T02:03:01.448Z,4.67
2019-02-12T02:05:30.757Z,4.60
2019-02-12T02:08:00.041Z,4.80
2019-02-12T02:10:29.344Z,5.17
2019-02-12T02:12:59.004Z,5.00
2019-02-12T02:15:28.843Z,4.47
2019-02-12T02:17:58.412Z,5.03
2019-02-12T02:20:28.086Z,5.07
2019-02-12T02:22:57.368Z,5.33
2019-02-12T02:25:26.764Z,5.10
2019-02-12T02:27:56.048Z,4.60
2019-02-12T02:30:25.450Z,4.77
2019-02-12T02:32:55.148Z,5.07
2019-02-12T02:35:24.715Z,4.27
2019-02-12T02:37:54.294Z,4.70
2019-02-12T02:40:23.680Z,5.17
2019-02-12T02:42:53.673Z,4.47
2019-02-12T02:45:23.023Z,6.43
2019-02-12T02:47:52.697Z,5.13
2019-02-12T02:50:22.062Z,4.80
2019-02-12T02:52:51.611Z,5.70
2019-02-12T02:55:21.217Z,5.90
2019-02-12T02:57:50.625Z,5.57
2019-02-12T03:00:20.016Z,6.90
2019-02-12T03:02:49.322Z,5.90
2019-02-12T03:05:18.974Z,6.30
2019-02-12T03:07:48.567Z,7.00
2019-02-12T03:10:18.466Z,6.53
2019-02-12T03:12:47.815Z,6.43
2019-02-12T03:15:17.410Z,6.90
2019-02-12T03:17:47.146Z,6.77
2019-02-12T03:20:16.690Z,6.53
2019-02-12T03:22:46.407Z,6.43
2019-02-12T03:25:15.744Z,6.60
2019-02-12T03:27:45.082Z,7.43
2019-02-12T03:30:14.472Z,6.97
2019-02-12T03:32:43.729Z,7.27
2019-02-12T03:35:13.094Z,7.40
2019-02-12T03:37:42.469Z,7.70
2019-02-12T03:40:12.882Z,7.43
2019-02-12T03:42:42.228Z,7.23
2019-02-12T03:45:11.898Z,8.60
2019-02-12T03:47:41.263Z,8.23
2019-02-12T03:50:11.553Z,8.33
2019-02-12T03:52:40.973Z,8.57
2019-02-12T03:55:11.095Z,8.37
2019-02-12T03:57:40.711Z,8.83
2019-02-12T04:00:12.460Z,8.53
2019-02-12T04:03:08.482Z,8.73
2019-02-12T04:05:39.150Z,8.70
2019-02-12T04:08:09.092Z,9.20
2019-02-12T04:10:38.351Z,8.53
2019-02-12T04:13:07.678Z,8.87
2019-02-12T04:15:37.272Z,9.23
2019-02-12T04:18:06.570Z,8.87
2019-02-12T04:20:35.873Z,8.47
2019-02-12T04:23:05.520Z,9.10
2019-02-12T04:25:34.885Z,8.93
2019-02-12T04:28:04.215Z,9.27
2019-02-12T04:30:33.527Z,8.83
2019-02-12T04:33:03.225Z,8.63
2019-02-12T04:35:32.599Z,8.80
2019-02-12T04:38:01.887Z,9.70
2019-02-12T04:40:31.220Z,10.13
2019-02-12T04:43:00.511Z,8.40
2019-02-12T04:45:29.913Z,14.27
2019-02-12T04:47:59.269Z,10.37
2019-02-12T04:50:28.579Z,8.87
2019-02-12T04:52:57.834Z,8.90
2019-02-12T04:55:27.808Z,9.77
2019-02-12T04:57:58.236Z,8.77
2019-02-12T05:00:27.580Z,10.23
2019-02-12T05:02:57.825Z,9.27
2019-02-12T05:05:27.502Z,10.10
2019-02-12T05:07:57.093Z,9.13
2019-02-12T05:10:27.769Z,9.93
2019-02-12T05:12:57.047Z,11.30
2019-02-12T05:15:26.363Z,11.87
2019-02-12T05:17:56.279Z,9.97
2019-02-12T05:20:25.555Z,9.60
2019-02-12T05:22:55.500Z,10.67
2019-02-12T05:25:24.815Z,10.90
2019-02-12T05:27:55.995Z,10.70
2019-02-12T05:30:25.544Z,10.83
2019-02-12T05:32:55.536Z,10.87
2019-02-12T05:35:25.209Z,11.23
2019-02-12T05:37:54.775Z,11.67
2019-02-12T05:40:24.139Z,9.73
2019-02-12T05:42:53.869Z,10.77
2019-02-12T05:45:23.237Z,10.90
2019-02-12T05:47:52.602Z,10.73
2019-02-12T05:50:22.144Z,10.97
2019-02-12T05:52:54.321Z,11.80
2019-02-12T05:55:22.535Z,11.43
2019-02-12T05:57:51.901Z,10.57
2019-02-12T06:00:23.258Z,10.80
2019-02-12T06:02:53.791Z,10.10
2019-02-12T06:05:27.824Z,12.67
2019-02-12T06:07:57.244Z,10.73
2019-02-12T06:10:26.618Z,9.43
2019-02-12T06:12:56.308Z,10.77
2019-02-12T06:15:26.708Z,11.13
2019-02-12T06:17:56.006Z,10.27
2019-02-12T06:20:25.340Z,10.37
2019-02-12T06:23:03.040Z,10.47
2019-02-12T06:25:25.729Z,9.63
2019-02-12T06:27:55.390Z,9.37
2019-02-12T06:30:25.007Z,9.03
2019-02-12T06:32:54.314Z,9.53
2019-02-12T06:35:23.674Z,8.83
2019-02-12T06:37:52.977Z,8.80
2019-02-12T06:40:22.413Z,8.60
2019-02-12T06:42:52.090Z,9.10
2019-02-12T06:45:21.427Z,9.30
2019-02-12T06:47:50.768Z,12.23
2019-02-12T06:50:20.115Z,10.87
2019-02-12T06:52:49.395Z,10.33
2019-02-12T06:55:19.008Z,9.73
2019-02-12T06:57:48.343Z,9.13
2019-02-12T07:00:17.624Z,9.67
2019-02-12T07:03:19.528Z,10.00
2019-02-12T07:06:04.444Z,9.57
2019-02-12T07:09:13.044Z,10.40
2019-02-12T07:12:29.756Z,9.73
2019-02-12T07:15:30.343Z,10.47
2019-02-12T07:18:39.594Z,9.53
2019-02-12T07:21:39.363Z,10.80
2019-02-12T07:24:40.214Z,13.40
2019-02-12T07:27:54.601Z,11.33
2019-02-12T07:30:53.702Z,11.30
2019-02-12T07:33:51.556Z,11.20
2019-02-12T07:36:50.485Z,11.77
2019-02-12T07:39:41.456Z,10.37
2019-02-12T07:42:35.468Z,11.70
2019-02-12T07:45:42.666Z,12.03
2019-02-12T07:48:50.126Z,13.43
2019-02-12T07:51:37.632Z,14.73
2019-02-12T07:54:28.981Z,14.70
2019-02-12T07:57:39.679Z,15.30
2019-02-12T08:00:29.277Z,12.67
2019-02-12T08:03:35.417Z,14.37
2019-02-12T08:06:54.927Z,12.80
2019-02-12T08:10:08.546Z,13.70
2019-02-12T08:13:03.558Z,13.07
2019-02-12T08:16:08.291Z,12.77
2019-02-12T08:19:26.842Z,12.50
2019-02-12T08:22:32.223Z,12.67
2019-02-12T08:25:26.431Z,12.63
2019-02-12T08:28:35.634Z,12.97
2019-02-12T08:31:45.953Z,12.10
2019-02-12T08:34:38.744Z,12.80
2019-02-12T08:37:50.773Z,11.47
2019-02-12T08:41:06.227Z,12.03
2019-02-12T08:44:17.238Z,11.87
2019-02-12T08:47:38.975Z,11.37
2019-02-12T08:50:25.608Z,11.30
2019-02-12T08:53:50.575Z,12.33
2019-02-12T08:56:42.707Z,13.23
2019-02-12T08:59:34.196Z,12.93
2019-02-12T09:02:34.614Z,12.97
2019-02-12T09:05:37.858Z,14.07
2019-02-12T09:08:44.675Z,12.90
2019-02-12T09:11:33.799Z,12.97
2019-02-12T09:14:46.726Z,13.07
2019-02-12T09:18:03.627Z,13.03
2019-02-12T09:20:43.256Z,13.63
2019-02-12T09:24:03.586Z,13.13
2019-02-12T09:27:24.574Z,13.03
2019-02-12T09:30:16.386Z,13.63
2019-02-12T09:33:07.859Z,13.83
2019-02-12T09:35:52.686Z,14.10
2019-02-12T09:38:56.384Z,13.47
2019-02-12T09:41:34.192Z,14.30
2019-02-12T09:44:42.386Z,13.50
2019-02-12T09:47:55.168Z,13.93
2019-02-12T09:50:52.890Z,13.47
2019-02-12T09:53:55.119Z,13.50
2019-02-12T09:57:03.763Z,12.83
2019-02-12T10:00:22.791Z,13.83
2019-02-12T10:03:57.371Z,14.70
2019-02-12T10:06:57.976Z,14.90
2019-02-12T10:09:47.416Z,14.13
2019-02-12T10:12:37.047Z,13.67
2019-02-12T10:15:59.781Z,13.93
2019-02-12T10:19:15.156Z,13.80
2019-02-12T10:22:21.423Z,14.07
2019-02-12T10:25:10.438Z,13.87
2019-02-12T10:28:19.580Z,13.90
2019-02-12T10:31:17.972Z,14.03
2019-02-12T10:33:47.620Z,13.03
2019-02-12T10:36:17.111Z,13.17
2019-02-12T10:38:46.457Z,13.30
2019-02-12T10:41:16.122Z,14.10
2019-02-12T10:43:46.052Z,13.30
2019-02-12T10:46:15.387Z,12.33
2019-02-12T10:48:44.697Z,13.47
2019-02-12T10:51:14.489Z,12.07
2019-02-12T10:53:43.840Z,12.30
2019-02-12T10:56:13.440Z,11.27
2019-02-12T10:58:43.852Z,12.60
2019-02-12T11:01:13.495Z,12.57
2019-02-12T11:03:43.190Z,11.53
2019-02-12T11:06:12.623Z,11.83
2019-02-12T11:08:41.941Z,12.13
2019-02-12T11:11:11.835Z,11.27
2019-02-12T11:13:41.116Z,11.00
2019-02-12T11:16:10.705Z,9.63
2019-02-12T11:18:39.968Z,10.13
2019-02-12T11:21:12.145Z,10.17
2019-02-12T11:23:42.488Z,12.20
2019-02-12T11:26:11.793Z,12.33
2019-02-12T11:28:41.453Z,13.13
2019-02-12T11:31:10.840Z,12.13
2019-02-12T11:33:40.401Z,10.23
2019-02-12T11:36:09.745Z,9.47
2019-02-12T11:38:39.436Z,9.33
2019-02-12T11:41:09.015Z,8.47
2019-02-12T11:43:38.528Z,7.83
2019-02-12T11:46:07.845Z,8.53
2019-02-12T11:48:37.184Z,8.77
2019-02-12T11:51:06.577Z,9.97
2019-02-12T11:53:36.006Z,10.00
2019-02-12T11:56:05.351Z,9.77
2019-02-12T11:58:35.238Z,8.40
2019-02-12T12:01:07.914Z,9.33
2019-02-12T12:03:37.218Z,8.80
2019-02-12T12:06:06.915Z,8.93
2019-02-12T12:08:36.303Z,8.07
2019-02-12T12:11:05.633Z,8.90
2019-02-12T12:13:34.934Z,8.40
2019-02-12T12:16:04.461Z,8.50
2019-02-12T12:18:33.816Z,9.20
2019-02-12T12:21:03.133Z,10.10
2019-02-12T12:23:33.145Z,9.13
2019-02-12T12:26:02.455Z,8.80
2019-02-12T12:28:31.812Z,9.23
2019-02-12T12:31:01.098Z,8.77
2019-02-12T12:33:30.428Z,9.03
2019-02-12T12:35:59.816Z,8.67
2019-02-12T12:38:29.351Z,9.23
2019-02-12T12:40:58.812Z,8.43
2019-02-12T12:43:29.925Z,8.63
2019-02-12T12:45:59.830Z,8.50
2019-02-12T12:48:30.229Z,8.00
2019-02-12T12:50:59.616Z,7.93
2019-02-12T12:53:31.521Z,7.47
2019-02-12T12:56:00.816Z,8.70
2019-02-12T12:58:30.447Z,8.13
2019-02-12T13:01:01.371Z,7.93
2019-02-12T13:03:30.831Z,6.67
2019-02-12T13:06:00.228Z,6.63
2019-02-12T13:08:31.763Z,6.30
2019-02-12T13:11:02.876Z,5.93
2019-02-12T13:13:33.722Z,5.97
2019-02-12T13:16:03.093Z,5.90
2019-02-12T13:18:32.650Z,6.37
2019-02-12T13:21:02.033Z,5.47
2019-02-12T13:23:31.400Z,5.33
2019-02-12T13:26:01.164Z,5.77
2019-02-12T13:28:30.459Z,5.87
2019-02-12T13:30:59.755Z,5.07
2019-02-12T13:33:29.312Z,5.13
2019-02-12T13:35:58.560Z,5.03
2019-02-12T13:38:27.863Z,5.00
2019-02-12T13:40:57.183Z,5.20
2019-02-12T13:43:26.499Z,4.80
2019-02-12T13:45:55.830Z,4.80
2019-02-12T13:48:25.487Z,4.90
2019-02-12T13:50:54.832Z,4.50
2019-02-12T13:53:24.164Z,3.97
2019-02-12T13:55:53.475Z,4.13
2019-02-12T13:58:22.896Z,3.90
2019-02-12T14:00:52.190Z,4.40
2019-02-12T14:03:22.700Z,4.00
2019-02-12T14:05:52.966Z,4.03
2019-02-12T14:08:22.327Z,4.10
2019-02-12T14:10:51.827Z,3.97
2019-02-12T14:13:21.118Z,4.07
2019-02-12T14:15:50.444Z,4.40
2019-02-12T14:18:19.764Z,3.87
2019-02-12T14:20:49.292Z,4.20
2019-02-12T14:23:18.731Z,3.97
2019-02-12T14:25:48.000Z,4.07
2019-02-12T14:28:18.394Z,3.77
2019-02-12T14:30:47.838Z,4.63
2019-02-12T14:33:17.381Z,4.00
2019-02-12T14:35:47.231Z,3.30
2019-02-12T14:38:16.791Z,3.67
2019-02-12T14:40:46.123Z,3.30
2019-02-12T14:43:15.524Z,3.83
2019-02-12T14:46:03.881Z,2.87
2019-02-12T14:48:33.193Z,3.43
2019-02-12T14:51:02.550Z,3.50
2019-02-12T14:53:31.868Z,3.27
2019-02-12T14:56:01.143Z,2.80
2019-02-12T14:58:30.472Z,3.27
2019-02-12T15:01:00.715Z,3.37
2019-02-12T15:03:30.310Z,3.97
2019-02-12T15:05:59.667Z,3.00
2019-02-12T15:08:29.255Z,3.67
2019-02-12T15:10:58.543Z,3.53
2019-02-12T15:13:27.867Z,4.00
2019-02-12T15:15:57.520Z,3.53
2019-02-12T15:18:27.109Z,3.30
2019-02-12T15:20:56.363Z,3.90
2019-02-12T15:23:25.670Z,3.63
2019-02-12T15:25:55.266Z,3.97
2019-02-12T15:28:24.600Z,3.37
2019-02-12T15:30:53.880Z,4.73
2019-02-12T15:33:23.175Z,4.57
2019-02-12T15:35:53.081Z,3.33
2019-02-12T15:38:23.116Z,3.73
2019-02-12T15:40:52.431Z,4.43
2019-02-12T15:43:22.139Z,4.67
2019-02-12T15:45:51.548Z,4.13
2019-02-12T15:48:21.247Z,4.17
2019-02-12T15:50:50.531Z,3.90
2019-02-12T15:53:19.789Z,4.87
2019-02-12T15:55:51.276Z,4.73
2019-02-12T15:58:20.102Z,5.20
2019-02-12T16:00:49.407Z,4.50
2019-02-12T16:03:20.448Z,4.73
2019-02-12T16:05:49.944Z,5.40
2019-02-12T16:08:19.223Z,5.17
2019-02-12T16:10:48.498Z,5.63
2019-02-12T16:13:18.061Z,6.13
2019-02-12T16:15:47.616Z,5.97
2019-02-12T16:18:17.000Z,5.97
2019-02-12T16:20:46.645Z,6.13
2019-02-12T16:23:15.941Z,6.00
2019-02-12T16:25:45.343Z,6.23
2019-02-12T16:28:14.763Z,6.90
2019-02-12T16:30:44.048Z,7.57
2019-02-12T16:33:13.842Z,7.60
2019-02-12T16:35:43.347Z,7.37
2019-02-12T16:38:13.032Z,6.83
2019-02-12T16:40:42.427Z,7.20
2019-02-12T16:43:11.881Z,7.87
2019-02-12T16:45:53.054Z,7.20
2019-02-12T16:48:22.422Z,7.20
2019-02-12T16:50:51.954Z,7.53
2019-02-12T16:53:21.348Z,8.43
2019-02-12T16:55:50.832Z,7.73
2019-02-12T16:58:20.115Z,8.10
2019-02-12T17:00:49.910Z,8.50
2019-02-12T17:03:19.223Z,8.13
2019-02-12T17:05:48.488Z,7.40
2019-02-12T17:08:17.781Z,7.47
2019-02-12T17:10:47.102Z,8.60
2019-02-12T17:13:16.910Z,7.33
2019-02-12T17:15:46.209Z,7.50
2019-02-12T17:18:17.050Z,8.03
2019-02-12T17:20:46.646Z,8.30
2019-02-12T17:23:16.105Z,8.83
2019-02-12T17:25:45.641Z,8.77
2019-02-12T17:28:15.062Z,8.70
2019-02-12T17:30:44.447Z,8.57
2019-02-12T17:33:13.868Z,9.90
2019-02-12T17:35:43.979Z,9.10
2019-02-12T17:38:13.384Z,8.47
2019-02-12T17:40:44.247Z,10.83
2019-02-12T17:43:13.586Z,10.00
2019-02-12T17:45:43.020Z,11.10
2019-02-12T17:48:12.464Z,10.10
2019-02-12T17:50:41.868Z,10.80
2019-02-12T17:53:11.152Z,11.37
2019-02-12T17:55:40.575Z,10.73
2019-02-12T17:58:09.961Z,10.73
2019-02-12T18:00:43.318Z,9.77
2019-02-12T18:03:14.093Z,10.43
2019-02-12T18:05:43.396Z,10.37
2019-02-12T18:08:12.788Z,12.30
2019-02-12T18:10:42.111Z,10.93
2019-02-12T18:13:12.657Z,12.40
2019-02-12T18:15:42.047Z,14.47
2019-02-12T18:18:11.497Z,14.37
2019-02-12T18:20:40.885Z,13.57
2019-02-12T18:23:11.245Z,22.90
2019-02-12T18:25:41.684Z,13.57
2019-02-12T18:28:11.036Z,11.20
2019-02-12T18:30:40.445Z,10.87
2019-02-12T18:33:09.789Z,11.13
2019-02-12T18:35:39.102Z,11.80
2019-02-12T18:38:08.435Z,12.00
2019-02-12T18:40:37.799Z,13.30
2019-02-12T18:43:07.213Z,12.40
2019-02-12T18:45:36.819Z,11.43
2019-02-12T18:48:06.496Z,11.00
2019-02-12T18:50:35.824Z,14.70
2019-02-12T18:53:05.372Z,11.87
2019-02-12T18:55:34.971Z,10.13
2019-02-12T18:58:04.263Z,10.47
2019-02-12T19:00:33.610Z,13.37
2019-02-12T19:03:02.925Z,10.33
2019-02-12T19:05:32.550Z,10.53
2019-02-12T19:08:02.641Z,10.73
2019-02-12T19:10:31.953Z,10.50
2019-02-12T19:13:01.339Z,10.70
2019-02-12T19:15:30.657Z,11.73
2019-02-12T19:18:05.055Z,10.17
2019-02-12T19:20:34.741Z,11.93
2019-02-12T19:23:04.339Z,12.80
2019-02-12T19:25:34.008Z,11.43
2019-02-12T19:28:03.420Z,16.97
2019-02-12T19:30:32.726Z,12.60
2019-02-12T19:33:02.257Z,14.03
2019-02-12T19:35:31.691Z,16.90
2019-02-12T19:38:01.643Z,16.50
2019-02-12T19:40:31.039Z,15.20
2019-02-12T19:43:00.892Z,11.27
2019-02-12T19:45:30.427Z,11.20
2019-02-12T19:47:59.736Z,12.53
2019-02-12T19:50:29.045Z,12.47
2019-02-12T19:52:59.010Z,14.17
2019-02-12T19:55:28.737Z,12.97
2019-02-12T19:57:58.139Z,12.37
2019-02-12T20:00:27.428Z,13.07
2019-02-12T20:02:56.745Z,16.03
2019-02-12T20:05:26.611Z,15.67
2019-02-12T20:07:56.400Z,13.67
2019-02-12T20:10:25.895Z,12.73
2019-02-12T20:12:55.250Z,12.03
2019-02-12T20:15:24.597Z,11.47
2019-02-12T20:17:54.115Z,11.53
2019-02-12T20:20:23.651Z,11.70
2019-02-12T20:22:52.982Z,12.47
2019-02-12T20:25:22.645Z,11.40
2019-02-12T20:27:51.933Z,11.40
2019-02-12T20:30:21.561Z,13.20
2019-02-12T20:32:51.108Z,12.90
2019-02-12T20:35:20.748Z,12.97
2019-02-12T20:37:51.071Z,14.43
2019-02-12T20:40:20.651Z,13.10
2019-02-12T20:42:50.247Z,12.50
2019-02-12T20:45:19.534Z,11.47
2019-02-12T20:47:48.840Z,11.43
2019-02-12T20:50:18.193Z,10.53
2019-02-12T20:52:47.642Z,10.53
2019-02-12T20:55:17.060Z,11.03
2019-02-12T20:57:46.535Z,10.80
2019-02-12T21:00:17.065Z,10.70
2019-02-12T21:02:46.422Z,9.60
2019-02-12T21:05:16.134Z,10.83
2019-02-12T21:07:45.468Z,10.80
2019-02-12T21:10:16.227Z,12.73
2019-02-12T21:12:45.599Z,11.57
2019-02-12T21:15:17.515Z,12.47
2019-02-12T21:17:46.833Z,13.33
2019-02-12T21:20:16.457Z,11.93
2019-02-12T21:22:45.834Z,11.47
2019-02-12T21:25:15.125Z,11.93
2019-02-12T21:27:44.815Z,12.47
2019-02-12T21:30:16.448Z,12.57
2019-02-12T21:32:45.763Z,11.63
2019-02-12T21:35:15.559Z,13.10
2019-02-12T21:37:44.976Z,11.87
2019-02-12T21:40:19.119Z,11.37
2019-02-12T21:42:49.580Z,9.77
2019-02-12T21:45:19.137Z,9.13
2019-02-12T21:47:48.732Z,8.90
2019-02-12T21:50:18.271Z,9.67
2019-02-12T21:52:47.887Z,10.40
2019-02-12T21:55:17.548Z,9.50
2019-02-12T21:57:47.140Z,9.50
2019-02-12T22:00:17.062Z,9.87
2019-02-12T22:02:46.907Z,9.27
2019-02-12T22:05:16.593Z,9.90
2019-02-12T22:07:45.906Z,11.67
2019-02-12T22:10:16.949Z,12.13
2019-02-12T22:12:46.355Z,9.70
2019-02-12T22:15:15.696Z,9.90
2019-02-12T22:17:45.040Z,10.67
2019-02-12T22:20:15.713Z,11.70
2019-02-12T22:22:45.060Z,11.63
2019-02-12T22:25:14.553Z,11.07
2019-02-12T22:27:44.164Z,11.83
2019-02-12T22:30:18.226Z,14.40
2019-02-12T22:32:47.504Z,13.33
2019-02-12T22:35:17.097Z,13.57
2019-02-12T22:37:46.538Z,11.87
2019-02-12T22:40:16.603Z,12.97
2019-02-12T22:42:46.310Z,11.53
2019-02-12T22:45:17.958Z,11.60
2019-02-12T22:47:47.280Z,11.20
2019-02-12T22:50:16.937Z,10.07
2019-02-12T22:52:46.277Z,9.37
2019-02-12T22:55:16.029Z,9.70
2019-02-12T22:57:49.182Z,10.30
2019-02-12T23:00:39.678Z,9.27
2019-02-12T23:03:09.404Z,9.97
2019-02-12T23:05:38.722Z,8.50
2019-02-12T23:08:08.543Z,8.80
2019-02-12T23:10:37.939Z,9.53
2019-02-12T23:13:07.717Z,9.20
2019-02-12T23:15:37.469Z,10.17
2019-02-12T23:18:06.774Z,9.17
2019-02-12T23:20:36.352Z,10.30
2019-02-12T23:23:05.919Z,10.90
2019-02-12T23:25:35.301Z,9.63
2019-02-12T23:28:04.863Z,9.83
2019-02-12T23:30:34.131Z,10.50
2019-02-12T23:33:03.434Z,11.07
2019-02-12T23:35:32.736Z,11.20
2019-02-12T23:38:02.396Z,9.47
2019-02-12T23:40:31.708Z,10.63
2019-02-12T23:43:01.252Z,9.50
2019-02-12T23:45:30.580Z,8.97
2019-02-12T23:48:00.153Z,9.60
2019-02-12T23:50:29.856Z,9.00
2019-02-12T23:52:59.139Z,9.23
2019-02-12T23:55:28.637Z,8.80
2019-02-12T23:58:05.587Z,9.60
